createdAt,value
2022-10-19T01:23:41.281Z,84.30
2022-10-19T01:26:58.330Z,84.30
2022-10-19T01:30:13.863Z,84.30
2022-10-19T01:33:34.116Z,84.40
2022-10-19T01:36:58.011Z,84.50
2022-10-19T01:40:15.362Z,84.50
2022-10-19T01:43:41.120Z,84.50
2022-10-19T01:46:44.906Z,84.50
2022-10-19T01:49:59.022Z,84.50
2022-10-19T01:53:00.726Z,84.50
2022-10-19T01:56:02.376Z,84.40
2022-10-19T01:59:05.003Z,84.50
2022-10-19T02:02:07.455Z,84.50
2022-10-19T02:05:09.678Z,84.50
2022-10-19T02:08:13.870Z,84.50
2022-10-19T02:11:16.262Z,84.60
2022-10-19T02:14:19.603Z,84.50
2022-10-19T02:17:21.986Z,84.50
2022-10-19T02:20:24.084Z,84.50
2022-10-19T02:23:26.022Z,84.40
2022-10-19T02:26:27.712Z,84.40
2022-10-19T02:29:29.422Z,84.30
2022-10-19T02:32:31.276Z,84.20
2022-10-19T02:35:33.216Z,84.20
2022-10-19T02:38:35.026Z,84.20
2022-10-19T02:41:52.550Z,84.00
2022-10-19T02:45:00.528Z,84.10
2022-10-19T02:48:10.065Z,84.00
2022-10-19T02:51:31.767Z,84.00
2022-10-19T02:54:33.877Z,84.00
2022-10-19T02:57:36.116Z,84.00
2022-10-19T03:00:38.185Z,84.10
2022-10-19T03:03:40.158Z,84.10
2022-10-19T03:06:41.896Z,84.10
2022-10-19T03:09:43.759Z,84.20
2022-10-19T03:12:45.719Z,84.30
2022-10-19T03:15:48.037Z,84.30
2022-10-19T03:18:50.111Z,84.30
2022-10-19T03:21:51.781Z,84.30
2022-10-19T03:24:53.506Z,84.30
2022-10-19T03:27:55.185Z,84.30
2022-10-19T03:30:56.949Z,84.30
2022-10-19T03:33:58.768Z,84.40
2022-10-19T03:37:00.634Z,84.40
2022-10-19T03:40:02.433Z,84.50
2022-10-19T03:43:04.394Z,84.50
2022-10-19T03:46:06.161Z,84.60
2022-10-19T03:49:08.113Z,84.60
2022-10-19T03:52:10.235Z,84.70
2022-10-19T03:55:12.187Z,84.60
2022-10-19T03:58:13.835Z,84.60
2022-10-19T04:01:20.741Z,84.50
2022-10-19T04:04:22.672Z,84.60
2022-10-19T04:07:24.352Z,84.60
2022-10-19T04:10:26.031Z,84.60
2022-10-19T04:13:28.157Z,84.70
2022-10-19T04:16:30.422Z,84.70
2022-10-19T04:19:32.088Z,84.70
2022-10-19T04:22:33.774Z,84.80
2022-10-19T04:25:35.624Z,84.80
2022-10-19T04:28:37.386Z,84.80
2022-10-19T04:31:39.337Z,84.80
2022-10-19T04:34:41.273Z,84.80
2022-10-19T04:37:42.937Z,84.90
2022-10-19T04:40:44.606Z,84.90
2022-10-19T04:43:46.904Z,85.00
2022-10-19T04:46:48.571Z,85.00
2022-10-19T04:49:50.316Z,85.00
2022-10-19T04:52:52.210Z,85.00
2022-10-19T04:55:53.947Z,85.00
2022-10-19T04:58:56.904Z,85.10
2022-10-19T05:01:58.545Z,85.00
2022-10-19T05:05:00.265Z,85.00
2022-10-19T05:08:02.090Z,85.00
2022-10-19T05:11:05.072Z,85.10
2022-10-19T05:14:06.826Z,85.20
2022-10-19T05:17:08.502Z,85.20
2022-10-19T05:20:13.231Z,85.20
2022-10-19T05:23:16.040Z,85.30
2022-10-19T05:26:18.450Z,85.20
2022-10-19T05:29:20.181Z,85.30
2022-10-19T05:32:21.895Z,85.30
2022-10-19T05:35:23.804Z,85.20
2022-10-19T05:38:25.455Z,85.30
2022-10-19T05:41:27.367Z,85.40
2022-10-19T05:44:29.151Z,85.40
2022-10-19T05:47:31.353Z,85.40
2022-10-19T05:50:33.111Z,85.50
2022-10-19T05:53:35.331Z,85.60
2022-10-19T05:56:37.352Z,85.60
2022-10-19T05:59:39.041Z,85.70
2022-10-19T06:02:42.742Z,85.70
2022-10-19T06:05:44.398Z,85.80
2022-10-19T06:08:47.066Z,85.70
2022-10-19T06:11:48.721Z,85.80
2022-10-19T06:14:50.990Z,85.80
2022-10-19T06:17:52.647Z,85.70
2022-10-19T06:20:54.320Z,85.60
2022-10-19T06:23:57.915Z,85.60
2022-10-19T06:26:59.590Z,85.50
2022-10-19T06:30:01.348Z,85.50
2022-10-19T06:36:13.852Z,85.50
2022-10-19T06:39:15.527Z,85.50
2022-10-19T06:42:17.179Z,85.50
2022-10-19T06:45:19.000Z,85.50
2022-10-19T06:48:20.683Z,85.40
2022-10-19T06:51:22.657Z,85.40
2022-10-19T06:54:25.582Z,85.50
2022-10-19T06:57:28.562Z,85.60
2022-10-19T07:00:30.902Z,85.70
2022-10-19T07:03:32.901Z,85.70
2022-10-19T07:06:34.746Z,85.60
2022-10-19T07:09:36.474Z,85.60
2022-10-19T07:12:38.246Z,85.50
2022-10-19T07:15:39.925Z,85.50
2022-10-19T07:18:42.470Z,85.40
2022-10-19T07:21:44.900Z,85.30
2022-10-19T07:24:46.657Z,85.20
2022-10-19T07:27:48.341Z,85.10
2022-10-19T07:30:50.024Z,84.80
2022-10-19T07:33:59.287Z,84.70
2022-10-19T07:37:00.942Z,84.60
2022-10-19T07:40:03.573Z,84.40
2022-10-19T07:43:05.509Z,84.20
2022-10-19T07:46:09.002Z,84.00
2022-10-19T07:49:16.209Z,83.90
2022-10-19T07:52:18.112Z,83.70
2022-10-19T07:55:20.089Z,83.40
2022-10-19T07:58:21.822Z,83.30
2022-10-19T08:01:25.443Z,83.20
2022-10-19T08:07:48.864Z,82.80
2022-10-19T08:10:50.650Z,82.60
2022-10-19T08:13:52.763Z,82.40
2022-10-19T08:16:54.622Z,82.30
2022-10-19T08:19:56.290Z,82.10
2022-10-19T08:22:59.088Z,81.90
2022-10-19T08:26:00.945Z,81.70
2022-10-19T08:29:20.964Z,81.50
2022-10-19T08:32:22.649Z,81.40
2022-10-19T08:35:24.298Z,81.20
2022-10-19T08:38:25.985Z,80.90
2022-10-19T08:41:30.791Z,80.60
2022-10-19T08:44:53.468Z,80.40
2022-10-19T08:48:03.968Z,80.10
2022-10-19T08:51:05.892Z,79.90
2022-10-19T08:54:12.215Z,79.70
2022-10-19T08:57:32.545Z,79.60
2022-10-19T09:00:52.275Z,79.50
2022-10-19T09:04:15.347Z,79.40
2022-10-19T09:07:27.111Z,79.30
2022-10-19T09:10:36.067Z,79.30
2022-10-19T09:14:03.761Z,79.00
2022-10-19T09:17:06.984Z,79.00
2022-10-19T09:20:37.258Z,78.90
2022-10-19T09:23:48.812Z,78.80
2022-10-19T09:26:52.980Z,78.70
2022-10-19T09:29:56.310Z,78.40
2022-10-19T09:33:01.411Z,78.20
2022-10-19T09:36:04.207Z,78.10
2022-10-19T09:39:06.000Z,77.80
2022-10-19T09:42:19.015Z,77.50
2022-10-19T09:45:29.545Z,77.10
2022-10-19T09:49:04.093Z,76.80
2022-10-19T09:52:05.775Z,76.20
2022-10-19T09:55:28.024Z,76.00
2022-10-19T09:58:32.944Z,75.60
2022-10-19T10:01:43.029Z,75.40
2022-10-19T10:05:14.123Z,75.00
2022-10-19T10:08:20.820Z,74.70
2022-10-19T10:11:38.002Z,74.40
2022-10-19T10:14:40.186Z,74.30
2022-10-19T10:17:41.831Z,74.10
2022-10-19T10:21:05.943Z,74.10
2022-10-19T10:24:11.537Z,74.30
2022-10-19T10:27:25.423Z,74.40
2022-10-19T10:30:28.991Z,74.40
2022-10-19T10:33:46.092Z,74.20
2022-10-19T10:36:50.442Z,74.20
2022-10-19T10:39:53.027Z,73.90
2022-10-19T10:42:56.778Z,73.80
2022-10-19T10:46:19.246Z,73.60
2022-10-19T10:49:25.838Z,73.30
2022-10-19T10:52:30.705Z,73.10
2022-10-19T10:55:32.537Z,73.20
2022-10-19T10:58:43.298Z,73.20
2022-10-19T11:01:51.400Z,73.20
2022-10-19T11:04:56.596Z,73.10
2022-10-19T11:08:12.654Z,73.00
2022-10-19T11:11:21.783Z,72.80
2022-10-19T11:14:36.461Z,72.60
2022-10-19T11:17:39.086Z,72.50
2022-10-19T11:20:48.679Z,72.30
2022-10-19T11:23:56.822Z,72.10
2022-10-19T11:27:27.908Z,71.70
2022-10-19T11:30:29.582Z,71.20
2022-10-19T11:34:00.015Z,70.90
2022-10-19T11:37:19.782Z,70.50
2022-10-19T11:40:40.248Z,70.20
2022-10-19T11:43:47.168Z,70.00
2022-10-19T11:46:57.652Z,69.70
2022-10-19T11:50:17.944Z,69.60
2022-10-19T11:53:57.509Z,69.70
2022-10-19T11:57:20.630Z,69.50
2022-10-19T12:04:12.662Z,70.00
2022-10-19T12:07:20.142Z,70.40
2022-10-19T12:10:32.534Z,70.80
2022-10-19T12:14:01.263Z,71.00
2022-10-19T12:17:07.949Z,71.00
2022-10-19T12:20:28.406Z,71.00
2022-10-19T12:23:40.350Z,70.90
2022-10-19T12:26:42.118Z,70.90
2022-10-19T12:29:47.894Z,70.90
2022-10-19T12:33:14.455Z,70.30
2022-10-19T12:36:25.030Z,69.60
2022-10-19T12:39:53.935Z,69.10
2022-10-19T12:43:15.038Z,69.00
2022-10-19T12:46:40.051Z,68.70
2022-10-19T12:49:49.292Z,68.50
2022-10-19T12:52:52.858Z,68.50
2022-10-19T12:56:09.780Z,68.70
2022-10-19T12:59:12.458Z,68.90
2022-10-19T13:02:36.804Z,68.80
2022-10-19T13:05:38.475Z,68.50
2022-10-19T13:08:43.224Z,68.40
2022-10-19T13:12:16.438Z,68.20
2022-10-19T13:15:36.965Z,68.00
2022-10-19T13:19:00.480Z,67.80
2022-10-19T13:22:02.118Z,68.10
2022-10-19T13:25:21.427Z,68.10
2022-10-19T13:28:29.018Z,68.20
2022-10-19T13:31:31.416Z,68.10
2022-10-19T13:34:33.654Z,68.00
2022-10-19T13:37:35.311Z,68.00
2022-10-19T13:40:38.049Z,68.00
2022-10-19T13:44:04.949Z,68.20
2022-10-19T13:47:25.921Z,68.50
2022-10-19T13:50:41.647Z,68.50
2022-10-19T13:54:27.897Z,68.50
2022-10-19T13:57:48.859Z,68.50
2022-10-19T14:01:31.742Z,68.40
2022-10-19T14:04:44.937Z,68.20
2022-10-19T14:08:03.579Z,68.40
2022-10-19T14:11:15.308Z,68.60
2022-10-19T14:14:21.921Z,68.70
2022-10-19T14:17:25.351Z,68.70
2022-10-19T14:20:34.323Z,68.70
2022-10-19T14:23:38.242Z,68.70
2022-10-19T14:26:40.731Z,68.70
2022-10-19T14:30:00.271Z,68.60
2022-10-19T14:33:06.920Z,68.60
2022-10-19T14:36:22.935Z,68.80
2022-10-19T14:39:32.732Z,68.60
2022-10-19T14:42:39.095Z,68.30
2022-10-19T14:45:40.705Z,68.20
2022-10-19T14:48:45.447Z,67.80
2022-10-19T14:51:52.014Z,67.20
2022-10-19T14:54:54.136Z,66.80
2022-10-19T14:57:55.833Z,67.30
2022-10-19T15:00:57.468Z,68.30
2022-10-19T15:03:59.255Z,69.00
2022-10-19T15:07:01.856Z,69.60
2022-10-19T15:10:05.587Z,69.90
2022-10-19T15:13:07.258Z,69.60
2022-10-19T15:16:31.110Z,69.00
2022-10-19T15:19:39.538Z,68.70
2022-10-19T15:22:41.417Z,68.70
2022-10-19T15:25:43.089Z,69.00
2022-10-19T15:28:44.920Z,69.50
2022-10-19T15:31:46.595Z,70.20
2022-10-19T15:34:48.263Z,70.50
2022-10-19T15:37:50.069Z,70.90
2022-10-19T15:41:02.540Z,71.00
2022-10-19T15:44:24.780Z,71.10
2022-10-19T15:47:26.958Z,71.30
2022-10-19T15:50:32.068Z,71.60
2022-10-19T15:53:33.965Z,71.90
2022-10-19T15:56:37.704Z,72.20
2022-10-19T15:59:39.379Z,72.60
2022-10-19T16:02:41.237Z,73.00
2022-10-19T16:05:42.864Z,73.30
2022-10-19T16:08:47.578Z,73.60
2022-10-19T16:11:50.216Z,74.00
2022-10-19T16:14:52.527Z,74.20
2022-10-19T16:17:55.917Z,74.50
2022-10-19T16:20:57.660Z,74.80
2022-10-19T16:23:59.441Z,75.20
2022-10-19T16:27:01.171Z,75.40
2022-10-19T16:30:03.646Z,75.70
2022-10-19T16:33:05.579Z,75.90
2022-10-19T16:36:07.947Z,76.10
2022-10-19T16:39:09.606Z,76.30
2022-10-19T16:42:11.241Z,76.50
2022-10-19T16:45:13.067Z,76.70
2022-10-19T16:48:14.735Z,77.00
2022-10-19T16:51:23.095Z,77.10
2022-10-19T16:54:26.469Z,77.30
2022-10-19T16:57:28.170Z,77.50
2022-10-19T17:00:30.350Z,77.70
2022-10-19T17:03:32.209Z,77.80
2022-10-19T17:06:34.182Z,77.90
2022-10-19T17:09:43.474Z,77.90
2022-10-19T17:12:46.394Z,78.10
2022-10-19T17:15:48.107Z,78.20
2022-10-19T17:18:50.312Z,78.20
2022-10-19T17:21:52.224Z,78.30
2022-10-19T17:24:55.462Z,78.50
2022-10-19T17:27:57.030Z,78.60
2022-10-19T17:31:02.438Z,78.80
2022-10-19T17:34:04.786Z,78.90
2022-10-19T17:37:06.521Z,78.80
2022-10-19T17:40:08.939Z,79.00
2022-10-19T17:43:10.961Z,79.10
2022-10-19T17:46:16.121Z,79.20
2022-10-19T17:49:18.747Z,79.40
2022-10-19T17:52:20.416Z,79.50
2022-10-19T17:58:30.654Z,79.70
2022-10-19T18:01:32.391Z,79.70
2022-10-19T18:07:42.759Z,79.70
2022-10-19T18:10:44.441Z,79.70
2022-10-19T18:13:47.861Z,79.90
2022-10-19T18:16:50.250Z,80.00
2022-10-19T18:19:51.938Z,80.10
2022-10-19T18:22:53.940Z,80.20
2022-10-19T18:25:55.780Z,80.30
2022-10-19T18:28:57.621Z,80.20
2022-10-19T18:31:59.343Z,80.10
2022-10-19T18:35:01.397Z,80.10
2022-10-19T18:38:03.371Z,80.10
2022-10-19T18:41:06.580Z,80.10
2022-10-19T18:44:08.492Z,80.00
2022-10-19T18:47:11.812Z,80.10
2022-10-19T18:50:13.492Z,80.00
2022-10-19T18:53:15.394Z,79.90
2022-10-19T18:56:19.144Z,80.00
2022-10-19T18:59:20.826Z,80.10
2022-10-19T19:02:28.562Z,80.20
2022-10-19T19:05:36.826Z,80.30
2022-10-19T19:08:39.414Z,80.40
2022-10-19T19:11:41.451Z,80.60
2022-10-19T19:14:45.085Z,80.70
2022-10-19T19:17:46.759Z,80.70
2022-10-19T19:20:48.715Z,80.80
2022-10-19T19:23:51.009Z,80.80
2022-10-19T19:26:53.555Z,80.90
2022-10-19T19:29:56.043Z,81.00
2022-10-19T19:32:58.006Z,81.00
2022-10-19T19:35:59.686Z,81.20
2022-10-19T19:39:01.430Z,81.10
2022-10-19T19:42:03.260Z,81.20
2022-10-19T19:45:05.477Z,81.20
2022-10-19T19:48:08.131Z,81.30
2022-10-19T19:51:10.926Z,81.30
2022-10-19T19:54:12.830Z,81.40
2022-10-19T19:57:14.487Z,81.40
2022-10-19T20:00:16.942Z,81.40
2022-10-19T20:03:18.724Z,81.30
2022-10-19T20:06:23.540Z,81.40
2022-10-19T20:09:28.957Z,81.40
2022-10-19T20:12:30.593Z,81.40
2022-10-19T20:15:32.337Z,81.50
2022-10-19T20:18:33.961Z,81.50
2022-10-19T20:21:35.620Z,81.50
2022-10-19T20:24:37.782Z,81.40
2022-10-19T20:27:39.607Z,81.50
2022-10-19T20:30:44.423Z,81.50
2022-10-19T20:33:47.467Z,81.50
2022-10-19T20:36:49.137Z,81.60
2022-10-19T20:39:50.814Z,81.70
2022-10-19T20:42:56.789Z,81.80
2022-10-19T20:46:17.763Z,81.90
2022-10-19T20:49:19.457Z,82.00
2022-10-19T20:52:21.178Z,82.10
2022-10-19T20:55:24.043Z,82.20
2022-10-19T20:58:25.742Z,82.20
2022-10-19T21:01:27.868Z,82.20
2022-10-19T21:04:30.863Z,82.30
2022-10-19T21:07:32.547Z,82.30
2022-10-19T21:10:34.344Z,82.50
2022-10-19T21:13:37.258Z,82.60
2022-10-19T21:16:39.404Z,82.60
2022-10-19T21:19:41.185Z,82.60
2022-10-19T21:22:43.562Z,82.60
2022-10-19T21:25:58.314Z,82.60
2022-10-19T21:29:00.829Z,82.70
2022-10-19T21:32:02.691Z,82.70
2022-10-19T21:35:05.845Z,82.60
2022-10-19T21:38:07.552Z,82.60
2022-10-19T21:41:15.247Z,82.50
2022-10-19T21:45:01.320Z,82.40
2022-10-19T21:48:16.576Z,82.30
2022-10-19T21:51:35.167Z,82.20
2022-10-19T21:54:37.221Z,82.30
2022-10-19T21:57:39.094Z,82.20
2022-10-19T22:00:41.094Z,82.20
2022-10-19T22:03:45.517Z,82.20
2022-10-19T22:06:47.389Z,82.30
2022-10-19T22:09:49.029Z,82.30
2022-10-19T22:12:51.948Z,82.30
2022-10-19T22:15:53.693Z,82.20
2022-10-19T22:18:55.743Z,82.20
2022-10-19T22:21:57.377Z,82.20
2022-10-19T22:24:59.125Z,82.10
2022-10-19T22:28:01.089Z,82.10
2022-10-19T22:31:02.997Z,82.10
